Time;durP1;ratioP1;P1;durP2;ratioP2;P2;SDS_P1;SDS_P2;PMS_P1;PMS_P2;Temp;Humidity;BMP_temperature;BMP_pressure;BME280_temperature;BME280_humidity;BME280_pressure;Samples;Min_cycle;Max_cycle;Signal;HPM_P1;HPM_P2
2022/06/03 00:01:07;;;;;;;3.78;2.70;;;;;;;9.32;100.00;101306.41;5205125;28;20036;-75
2022/06/03 00:03:55;;;;;;;2.88;2.40;;;;;;;9.35;100.00;101301.13;5201038;28;20051;-75
2022/06/03 00:06:40;;;;;;;3.63;2.92;;;;;;;9.47;100.00;101300.91;5206313;28;20033;-74
2022/06/03 00:09:35;;;;;;;3.63;2.87;;;;;;;9.47;100.00;101295.69;5204406;28;20052;-75
2022/06/03 00:12:23;;;;;;;3.53;2.50;;;;;;;9.42;100.00;101292.28;5199975;28;20095;-75
2022/06/03 00:15:11;;;;;;;2.80;2.38;;;;;;;9.22;100.00;101291.81;5208581;28;20025;-74
2022/06/03 00:18:17;;;;;;;3.03;2.58;;;;;;;9.25;100.00;101294.34;5207187;28;20021;-75
2022/06/03 00:21:07;;;;;;;3.05;2.28;;;;;;;9.56;100.00;101300.72;5209203;28;20563;-75
2022/06/03 00:24:23;;;;;;;2.90;2.38;;;;;;;9.33;100.00;101300.31;5206238;28;20060;-75
2022/06/03 00:27:29;;;;;;;4.50;2.90;;;;;;;9.31;100.00;101305.53;5209680;28;20033;-75
2022/06/03 00:30:18;;;;;;;3.35;2.50;;;;;;;9.55;100.00;101301.59;5211192;28;20592;-75
2022/06/03 00:33:06;;;;;;;4.05;2.72;;;;;;;9.45;100.00;101305.28;5209196;28;20025;-75
2022/06/03 00:35:46;;;;;;;3.28;2.58;;;;;;;9.34;100.00;101312.47;5186082;28;20376;-75
2022/06/03 00:38:31;;;;;;;3.17;2.35;;;;;;;9.18;100.00;101300.59;5203485;28;20099;-75
2022/06/03 00:41:05;;;;;;;3.10;2.53;;;;;;;8.98;100.00;101305.31;5206632;28;20413;-75
2022/06/03 00:43:58;;;;;;;3.93;2.10;;;;;;;9.10;100.00;101306.81;5208011;28;20109;-75
2022/06/03 00:46:42;;;;;;;3.53;2.20;;;;;;;8.99;100.00;101301.81;5208563;28;20706;-75
2022/06/03 00:49:48;;;;;;;2.65;2.00;;;;;;;8.94;100.00;101308.84;5206128;28;20108;-74
2022/06/03 00:52:59;;;;;;;5.72;2.67;;;;;;;8.66;100.00;101307.59;5193446;28;20028;-75
2022/06/03 00:55:47;;;;;;;4.35;2.60;;;;;;;8.68;100.00;101295.38;5203382;28;20025;-75
2022/06/03 00:58:47;;;;;;;3.45;2.38;;;;;;;8.78;100.00;101298.69;5207962;28;20026;-75
2022/06/03 01:01:21;;;;;;;3.45;2.42;;;;;;;8.81;100.00;101302.13;5192239;28;20029;-75
2022/06/03 01:04:09;;;;;;;3.40;2.67;;;;;;;8.94;100.00;101297.56;5209568;28;20037;-75
2022/06/03 01:07:04;;;;;;;3.90;2.17;;;;;;;8.89;100.00;101294.19;5200079;28;20434;-75
2022/06/03 01:09:53;;;;;;;3.38;2.50;;;;;;;8.75;100.00;101298.75;5207057;28;20033;-75
2022/06/03 01:12:38;;;;;;;3.17;2.42;;;;;;;8.86;100.00;101282.03;5208359;28;20035;-75
2022/06/03 01:15:23;;;;;;;9.83;2.40;;;;;;;8.80;100.00;101284.78;5206111;28;20028;-75
2022/06/03 01:18:18;;;;;;;3.03;2.20;;;;;;;8.95;100.00;101276.69;5208229;28;20171;-75
2022/06/03 01:20:51;;;;;;;3.33;2.60;;;;;;;8.93;100.00;101277.59;5208833;28;20422;-75
2022/06/03 01:24:16;;;;;;;3.08;2.38;;;;;;;9.16;100.00;101279.75;5208934;28;20047;-75
2022/06/03 01:27:09;;;;;;;5.05;2.50;;;;;;;8.71;100.00;101273.66;5098480;28;20049;-75
2022/06/03 01:29:53;;;;;;;5.18;2.58;;;;;;;8.67;100.00;101270.22;5205702;28;20097;-75
2022/06/03 01:32:39;;;;;;;4.97;2.97;;;;;;;8.76;100.00;101280.47;5208546;28;20041;-75
2022/06/03 01:35:43;;;;;;;3.40;2.70;;;;;;;8.49;100.00;101278.34;5209132;28;20594;-75
2022/06/03 01:38:40;;;;;;;3.55;2.53;;;;;;;8.47;100.00;101280.09;5200455;28;20557;-74
2022/06/03 01:41:29;;;;;;;3.15;2.67;;;;;;;8.67;100.00;101277.16;5207037;28;20021;-72
2022/06/03 01:44:18;;;;;;;3.42;2.60;;;;;;;8.77;100.00;101278.75;5211419;28;20036;-75
2022/06/03 01:47:21;;;;;;;5.35;2.78;;;;;;;8.62;100.00;101272.06;5207507;28;20212;-75
2022/06/03 01:50:21;;;;;;;4.28;2.60;;;;;;;8.65;100.00;101271.13;5209164;28;20540;-75
2022/06/03 01:53:16;;;;;;;3.85;2.50;;;;;;;8.54;100.00;101281.72;5191175;28;20040;-75
2022/06/03 01:56:10;;;;;;;3.88;2.67;;;;;;;8.40;100.00;101282.84;5210706;28;20490;-75
2022/06/03 01:58:59;;;;;;;4.03;2.78;;;;;;;8.41;100.00;101277.56;5209576;28;20041;-75
2022/06/03 02:01:41;;;;;;;3.90;2.80;;;;;;;8.31;100.00;101276.03;5211529;28;20113;-75
2022/06/03 02:04:41;;;;;;;4.13;2.55;;;;;;;8.43;100.00;101277.56;5209818;28;20112;-75
2022/06/03 02:07:20;;;;;;;3.75;2.70;;;;;;;8.48;100.00;101276.63;5212477;23;20494;-72
2022/06/03 02:10:04;;;;;;;3.28;2.53;;;;;;;8.45;100.00;101271.47;5193044;28;20071;-72
2022/06/03 02:12:52;;;;;;;5.38;2.45;;;;;;;8.45;100.00;101271.47;5209716;28;20116;-72
2022/06/03 02:15:53;;;;;;;3.72;2.40;;;;;;;8.54;100.00;101263.47;5212103;28;20420;-73
2022/06/03 02:18:50;;;;;;;3.95;2.75;;;;;;;8.54;100.00;101265.25;5213445;28;20024;-72
2022/06/03 02:21:32;;;;;;;3.50;2.78;;;;;;;8.33;100.00;101260.34;5211987;28;20035;-72
2022/06/03 02:24:18;;;;;;;5.40;2.72;;;;;;;8.38;100.00;101271.59;5207485;28;20483;-72
2022/06/03 02:26:51;;;;;;;3.50;2.50;;;;;;;8.12;100.00;101269.34;5212273;28;20576;-72
2022/06/03 02:32:39;;;;;;;3.55;2.65;;;;;;;8.09;100.00;101261.56;5212440;28;20047;-72
2022/06/03 02:35:39;;;;;;;3.13;2.70;;;;;;;8.33;100.00;101266.44;5208901;28;20025;-72
2022/06/03 02:38:21;;;;;;;3.22;2.58;;;;;;;8.20;100.00;101270.09;5170381;28;20564;-74
2022/06/03 02:41:30;;;;;;;3.10;2.47;;;;;;;8.30;100.00;101263.88;5212534;28;20029;-74
2022/06/03 02:44:36;;;;;;;4.43;2.60;;;;;;;8.15;100.00;101261.47;5189928;28;20493;-73
2022/06/03 02:47:58;;;;;;;3.28;2.38;;;;;;;8.24;100.00;101263.13;5189633;28;20104;-74
2022/06/03 02:50:46;;;;;;;3.03;2.55;;;;;;;8.26;100.00;101264.81;5196993;28;20401;-72
2022/06/03 02:53:41;;;;;;;3.58;2.08;;;;;;;7.99;100.00;101259.97;5192190;28;20030;-73
2022/06/03 02:56:27;;;;;;;4.15;2.53;;;;;;;7.75;100.00;101259.44;5208647;28;20494;-73
2022/06/03 02:59:16;;;;;;;3.33;2.55;;;;;;;7.72;100.00;101264.69;5210015;28;20029;-73
2022/06/03 03:02:17;;;;;;;5.50;2.38;;;;;;;7.58;100.00;101261.41;5210158;28;20117;-73
2022/06/03 03:05:09;;;;;;;4.60;2.20;;;;;;;7.42;100.00;101263.34;5209781;28;20029;-73
2022/06/03 03:07:39;;;;;;;2.65;2.30;;;;;;;7.38;100.00;101259.03;5209100;28;20183;-73
2022/06/03 03:10:09;;;;;;;3.30;2.42;;;;;;;7.51;100.00;101259.78;5212477;28;20128;-72
2022/06/03 03:12:46;;;;;;;2.78;2.22;;;;;;;7.70;100.00;101262.09;5193143;28;20030;-73
2022/06/03 03:15:37;;;;;;;4.45;2.20;;;;;;;7.53;100.00;101258.84;5211835;28;20083;-74
2022/06/03 03:18:26;;;;;;;3.10;2.42;;;;;;;7.41;100.00;101264.22;5206901;28;20032;-73
2022/06/03 03:21:22;;;;;;;2.95;2.30;;;;;;;7.74;100.00;101253.38;5192285;28;20029;-73
2022/06/03 03:24:10;;;;;;;3.42;2.10;;;;;;;7.96;100.00;101257.41;5211527;28;20210;-72
2022/06/03 03:26:44;;;;;;;3.10;2.20;;;;;;;7.79;100.00;101267.19;5207735;28;20053;-72
2022/06/03 03:29:22;;;;;;;2.97;2.10;;;;;;;7.76;100.00;101269.84;5201898;28;20116;-72
2022/06/03 03:31:58;;;;;;;3.65;1.95;;;;;;;7.91;100.00;101269.63;5205766;28;20163;-73
2022/06/03 03:34:38;;;;;;;4.50;2.20;;;;;;;7.84;100.00;101270.59;5212928;28;20043;-73
2022/06/03 03:37:11;;;;;;;4.03;2.05;;;;;;;7.89;100.00;101267.94;5207044;28;20513;-73
2022/06/03 03:40:02;;;;;;;2.60;2.10;;;;;;;7.99;100.00;101265.19;5211535;28;20394;-73
2022/06/03 03:43:05;;;;;;;2.80;2.05;;;;;;;8.37;100.00;101270.69;5207574;28;20082;-73
2022/06/03 03:46:17;;;;;;;2.60;2.00;;;;;;;8.18;100.00;101271.03;5209335;28;20021;-73
2022/06/03 03:49:15;;;;;;;2.67;2.03;;;;;;;8.11;100.00;101265.00;5210178;28;20041;-73
2022/06/03 03:52:23;;;;;;;2.20;1.60;;;;;;;8.05;100.00;101269.44;5209377;28;20036;-73
2022/06/03 03:55:27;;;;;;;3.50;2.10;;;;;;;8.22;100.00;101268.31;5210221;28;20623;-73
2022/06/03 03:58:19;;;;;;;4.63;2.20;;;;;;;8.30;100.00;101271.69;5209664;28;20082;-74
2022/06/03 04:01:25;;;;;;;2.80;2.28;;;;;;;8.33;100.00;101276.84;5210352;28;20068;-73
2022/06/03 04:04:08;;;;;;;9.52;5.03;;;;;;;8.63;100.00;101278.97;5211571;28;20036;-73
2022/06/03 04:07:11;;;;;;;10.38;3.08;;;;;;;8.48;100.00;101273.13;5205809;28;20107;-73
2022/06/03 04:10:25;;;;;;;4.25;2.40;;;;;;;8.53;100.00;101285.22;5201049;28;20041;-74
2022/06/03 04:13:20;;;;;;;5.88;2.30;;;;;;;8.30;100.00;101276.03;5211080;28;20020;-73
2022/06/03 04:16:08;;;;;;;4.32;2.58;;;;;;;8.39;100.00;101275.91;5209521;28;20501;-73
2022/06/03 04:19:06;;;;;;;4.50;2.47;;;;;;;8.52;100.00;101280.03;5205323;28;20041;-73
2022/06/03 04:22:13;;;;;;;4.43;2.95;;;;;;;8.65;100.00;101273.72;5205757;28;20033;-73
2022/06/03 04:25:11;;;;;;;4.82;2.88;;;;;;;8.86;100.00;101268.16;5208095;28;20083;-73
2022/06/03 04:28:09;;;;;;;3.30;2.45;;;;;;;9.00;100.00;101272.25;5207564;28;20394;-73
2022/06/03 04:30:58;;;;;;;3.92;2.60;;;;;;;9.14;100.00;101270.25;5209336;28;20483;-72
2022/06/03 04:33:53;;;;;;;5.07;3.03;;;;;;;9.07;100.00;101263.41;5208368;28;20098;-72
2022/06/03 04:36:40;;;;;;;4.65;3.50;;;;;;;9.53;100.00;101259.03;5210053;28;20028;-73
2022/06/03 04:39:47;;;;;;;3.83;3.30;;;;;;;9.52;100.00;101263.38;5206597;28;20034;-72
2022/06/03 04:42:54;;;;;;;4.20;3.00;;;;;;;12.42;95.63;101260.03;5201650;28;20028;-72
2022/06/03 04:45:28;;;;;;;;;;;;;;;14.38;79.45;101249.34;5193186;28;20029;-74
2022/06/03 04:48:29;;;;;;;3.13;1.77;;;;;;;15.08;76.77;101241.97;5208152;28;20004;-74
2022/06/03 04:51:29;;;;;;;2.42;1.45;;;;;;;17.72;70.58;101242.13;5211910;28;20057;-74
2022/06/03 04:54:30;;;;;;;4.00;1.38;;;;;;;17.37;70.05;101251.06;5212029;28;20078;-74
2022/06/03 04:57:34;;;;;;;4.25;2.17;;;;;;;19.88;63.97;101243.34;5203319;28;20025;-74
2022/06/03 05:00:22;;;;;;;2.53;1.40;;;;;;;18.60;65.64;101249.47;5201211;28;20122;-74
2022/06/03 05:03:08;;;;;;;1.23;1.02;;;;;;;19.50;65.00;101247.53;5192059;28;20040;-75
2022/06/03 05:06:20;;;;;;;2.42;1.00;;;;;;;23.46;55.12;101224.66;5205746;28;20478;-74
2022/06/03 05:09:08;;;;;;;1.88;1.20;;;;;;;25.00;52.20;101216.31;5208439;28;20037;-74
2022/06/03 05:11:42;;;;;;;1.80;1.20;;;;;;;24.52;53.07;101217.75;5189729;28;20033;-74
2022/06/03 05:14:34;;;;;;;1.70;1.10;;;;;;;25.30;51.87;101219.09;5207741;28;20083;-74
2022/06/03 05:17:37;;;;;;;1.70;1.13;;;;;;;25.87;50.54;101212.16;5203322;28;20030;-73
2022/06/03 05:20:32;;;;;;;3.28;1.00;;;;;;;25.39;50.63;101215.59;5207878;28;20395;-75
2022/06/03 05:23:17;;;;;;;1.65;0.88;;;;;;;25.18;54.29;101217.41;5202175;28;20026;-75
2022/06/03 05:26:21;;;;;;;3.30;1.05;;;;;;;24.08;54.57;101207.16;5207804;28;20363;-75
2022/06/03 05:29:36;;;;;;;2.47;1.00;;;;;;;22.92;59.04;101202.22;5185605;28;20033;-75
2022/06/03 05:32:50;;;;;;;1.58;0.88;;;;;;;24.84;53.91;101208.72;5201060;28;20079;-75
2022/06/03 05:35:23;;;;;;;3.17;1.13;;;;;;;23.48;56.66;101201.34;5210741;28;20040;-75
2022/06/03 05:38:17;;;;;;;1.58;1.00;;;;;;;26.06;52.56;101189.94;5213445;28;20021;-74
2022/06/03 05:42:23;;;;;;;2.17;1.15;;;;;;;22.38;59.84;101197.53;5212122;28;20060;-74
2022/06/03 05:44:25;;;;;;;5.65;1.30;;;;;;;24.48;56.94;101194.03;5205193;28;20453;-74
2022/06/03 05:47:24;;;;;;;1.60;1.10;;;;;;;24.97;56.48;101195.19;5211224;28;20029;-74
2022/06/03 05:50:18;;;;;;;2.10;1.25;;;;;;;23.01;60.22;101196.16;5213668;28;20036;-73
2022/06/03 05:53:11;;;;;;;3.20;1.20;;;;;;;21.91;63.69;101194.78;5210971;28;20025;-73
2022/06/03 05:55:53;;;;;;;1.67;1.27;;;;;;;20.62;68.71;101197.72;5208826;28;20475;-74
2022/06/03 05:58:38;;;;;;;3.00;1.60;;;;;;;19.27;71.97;101195.91;5209708;28;20341;-73
2022/06/03 06:01:44;;;;;;;3.33;1.53;;;;;;;20.37;70.57;101189.69;5203704;28;20473;-73
2022/06/03 06:04:34;;;;;;;4.13;1.48;;;;;;;19.19;75.07;101197.31;5210471;28;20346;-74
2022/06/03 06:07:34;;;;;;;2.67;1.55;;;;;;;20.87;69.74;101190.69;5210880;28;20017;-75
2022/06/03 06:10:16;;;;;;;2.42;1.20;;;;;;;21.35;67.35;101197.06;5209757;28;20071;-73
2022/06/03 06:13:04;;;;;;;3.03;1.20;;;;;;;21.55;66.94;101186.75;5213120;28;20029;-73
2022/06/03 06:16:02;;;;;;;1.88;1.02;;;;;;;21.62;66.32;101184.50;5211399;28;20025;-73
2022/06/03 06:18:40;;;;;;;2.55;1.30;;;;;;;21.92;65.03;101179.69;5192793;28;20034;-72
2022/06/03 06:21:22;;;;;;;1.30;1.08;;;;;;;22.50;64.26;101180.63;5213557;28;20094;-73
2022/06/03 06:24:05;;;;;;;1.50;1.17;;;;;;;21.99;65.72;101183.59;5213729;28;20036;-73
2022/06/03 06:26:45;;;;;;;3.05;1.20;;;;;;;21.80;65.10;101183.22;5189608;28;20124;-73
2022/06/03 06:29:42;;;;;;;2.20;1.20;;;;;;;22.74;64.14;101176.97;5207847;28;20033;-73
2022/06/03 06:32:41;;;;;;;1.98;1.20;;;;;;;21.11;67.74;101183.72;5206550;28;20269;-74
2022/06/03 06:35:49;;;;;;;2.80;1.10;;;;;;;21.07;69.01;101189.34;5209529;28;20037;-73
2022/06/03 06:38:38;;;;;;;3.15;1.10;;;;;;;22.67;63.58;101184.66;5210981;28;20087;-74
2022/06/03 06:41:48;;;;;;;1.42;1.00;;;;;;;22.99;64.69;101176.75;5208959;28;20161;-74
2022/06/03 06:45:06;;;;;;;2.67;1.05;;;;;;;22.18;66.55;101189.25;5175778;28;20351;-74
2022/06/03 06:47:49;;;;;;;1.85;0.98;;;;;;;24.21;63.56;101181.13;5189518;28;20045;-74
2022/06/03 06:50:30;;;;;;;1.88;1.10;;;;;;;22.82;64.93;101182.53;5211399;28;20028;-73
2022/06/03 06:53:14;;;;;;;1.80;1.10;;;;;;;22.02;68.08;101186.88;5206155;28;20025;-75
2022/06/03 06:56:24;;;;;;;2.83;1.10;;;;;;;23.81;64.74;101177.31;5213664;28;20486;-74
2022/06/03 06:59:01;;;;;;;2.33;1.00;;;;;;;22.02;66.10;101175.38;5193653;28;20048;-74
2022/06/03 07:01:51;;;;;;;2.25;1.23;;;;;;;22.36;67.23;101174.56;5207942;28;20026;-74
2022/06/03 07:04:28;;;;;;;1.58;1.05;;;;;;;22.89;64.71;101173.13;5210206;28;20478;-73
2022/06/03 07:07:09;;;;;;;2.65;0.93;;;;;;;23.24;62.31;101170.41;5213275;28;20028;-75
2022/06/03 07:09:45;;;;;;;2.17;1.13;;;;;;;23.81;62.60;101171.09;5207509;28;20040;-74
2022/06/03 07:12:18;;;;;;;1.88;1.00;;;;;;;23.42;64.74;101163.63;5211643;28;20017;-74
2022/06/03 07:15:20;;;;;;;1.75;1.02;;;;;;;25.34;59.28;101149.06;5212538;28;20214;-74
2022/06/03 07:21:39;;;;;;;1.83;0.90;;;;;;;26.05;56.59;101148.06;5210090;28;20040;-73
2022/06/03 07:24:20;;;;;;;2.63;1.20;;;;;;;24.79;55.45;101162.81;5210980;28;20052;-73
2022/06/03 07:26:58;;;;;;;1.30;0.88;;;;;;;24.71;56.07;101156.41;5210083;28;20040;-73
2022/06/03 07:29:39;;;;;;;1.90;1.02;;;;;;;27.14;52.15;101137.72;5206671;28;20621;-73
2022/06/03 07:32:23;;;;;;;1.83;0.90;;;;;;;26.22;53.13;101142.00;5205116;28;20458;-72
2022/06/03 07:34:59;;;;;;;1.40;0.77;;;;;;;25.59;52.36;101148.63;5210200;28;20021;-73
2022/06/03 07:37:33;;;;;;;0.88;0.70;;;;;;;26.03;51.11;101136.63;5204392;28;20361;-72
2022/06/03 07:40:26;;;;;;;0.60;0.50;;;;;;;25.55;52.97;101143.66;5207998;28;20470;-73
2022/06/03 07:43:05;;;;;;;0.90;0.60;;;;;;;25.75;51.34;101143.59;5212327;28;20033;-73
2022/06/03 07:45:51;;;;;;;0.60;0.60;;;;;;;25.43;51.87;101142.91;5206420;28;20373;-73
2022/06/03 07:48:24;;;;;;;1.85;0.88;;;;;;;25.73;53.20;101134.00;5209095;28;20036;-73
2022/06/03 07:50:59;;;;;;;2.13;0.95;;;;;;;26.34;51.76;101130.16;5212558;28;20273;-73
2022/06/03 07:54:07;;;;;;;2.10;0.80;;;;;;;25.52;51.64;101141.25;5208728;28;20086;-73
2022/06/03 07:56:39;;;;;;;1.95;0.75;;;;;;;25.66;51.29;101132.84;5209370;28;20082;-73
2022/06/03 07:59:20;;;;;;;3.10;0.90;;;;;;;24.79;52.72;101137.91;5189758;28;20025;-73
2022/06/03 08:02:21;;;;;;;1.27;0.88;;;;;;;25.06;51.56;101124.81;5188699;28;20029;-73
2022/06/03 08:05:06;;;;;;;2.13;0.80;;;;;;;26.18;49.88;101114.63;5210392;28;20405;-73
2022/06/03 08:13:39;;;;;;;1.60;0.93;;;;;;;27.51;49.31;101109.00;5166218;28;20041;-73
2022/06/03 08:16:23;;;;;;;1.35;0.80;;;;;;;25.64;50.16;101111.53;5211870;28;20492;-73
2022/06/03 08:19:07;;;;;;;1.42;0.80;;;;;;;27.05;49.34;101107.19;5211368;28;20104;-72
2022/06/03 08:21:43;;;;;;;1.83;1.00;;;;;;;26.48;50.46;101121.69;5187961;28;20087;-74
2022/06/03 08:24:19;;;;;;;1.42;0.80;;;;;;;26.09;50.62;101110.13;5210555;28;20561;-73
2022/06/03 08:26:55;;;;;;;1.35;0.90;;;;;;;27.58;46.63;101110.94;5210451;28;20037;-73
2022/06/03 08:29:38;;;;;;;2.08;0.80;;;;;;;27.03;48.45;101117.25;5204440;28;20068;-73
2022/06/03 08:32:20;;;;;;;1.58;0.73;;;;;;;26.04;51.14;101114.19;5203264;28;20032;-73
2022/06/03 08:34:52;;;;;;;0.77;0.60;;;;;;;28.03;47.55;101101.09;5209740;28;20048;-73
2022/06/03 08:37:33;;;;;;;2.50;0.90;;;;;;;26.69;49.67;101109.00;5210848;28;20545;-73
2022/06/03 08:40:41;;;;;;;1.58;0.90;;;;;;;28.17;46.95;101100.53;5206936;28;20052;-73
2022/06/03 08:43:47;;;;;;;0.88;0.70;;;;;;;27.87;49.29;101098.22;5177695;28;20044;-72
2022/06/03 08:46:28;;;;;;;1.27;0.83;;;;;;;27.45;46.54;101109.63;5200083;28;20036;-73
2022/06/03 08:49:10;;;;;;;1.27;0.60;;;;;;;26.81;46.84;101104.19;5193906;28;20124;-74
2022/06/03 08:52:00;;;;;;;1.85;0.70;;;;;;;26.98;49.31;101100.72;5191537;28;20113;-73
2022/06/03 08:54:40;;;;;;;1.77;0.80;;;;;;;28.73;47.51;101098.34;5203205;28;20025;-73
2022/06/03 08:57:21;;;;;;;1.98;1.10;;;;;;;26.64;48.82;101108.56;5208776;28;20037;-71
2022/06/03 09:00:01;;;;;;;1.67;1.00;;;;;;;26.98;49.12;101098.06;5206354;28;20086;-73
2022/06/03 09:02:50;;;;;;;2.05;0.80;;;;;;;26.62;49.91;101105.19;5205875;28;20021;-73
2022/06/03 09:05:38;;;;;;;1.70;0.77;;;;;;;26.86;49.47;101101.91;5210358;28;20056;-73
2022/06/03 09:08:17;;;;;;;1.10;0.70;;;;;;;27.53;47.56;101093.59;5208842;28;20513;-73
2022/06/03 09:10:59;;;;;;;2.92;0.90;;;;;;;27.15;48.17;101094.63;5214009;28;20035;-73
2022/06/03 09:14:00;;;;;;;3.85;0.82;;;;;;;26.79;48.95;101090.03;5211885;28;20091;-73
2022/06/03 09:16:33;;;;;;;1.33;0.70;;;;;;;26.90;49.06;101087.19;5215697;28;20633;-73
2022/06/03 09:19:15;;;;;;;1.58;0.90;;;;;;;26.88;49.46;101080.25;5207636;28;20032;-73
2022/06/03 09:21:51;;;;;;;2.58;0.70;;;;;;;26.94;49.74;101080.53;5213796;28;20574;-73
2022/06/03 09:24:24;;;;;;;1.63;0.90;;;;;;;26.56;50.01;101087.84;5214311;28;20040;-73
2022/06/03 09:26:58;;;;;;;1.45;0.80;;;;;;;27.73;48.56;101081.75;5211371;28;20013;-73
2022/06/03 09:29:30;;;;;;;2.67;1.02;;;;;;;27.74;47.10;101084.31;5208842;28;20068;-74
2022/06/03 09:32:03;;;;;;;2.00;1.00;;;;;;;26.87;48.81;101068.69;5208515;28;20502;-73
2022/06/03 09:34:40;;;;;;;3.00;1.00;;;;;;;25.92;50.24;101067.94;5207880;28;20517;-73
2022/06/03 09:37:14;;;;;;;2.08;0.93;;;;;;;26.00;51.38;101080.63;5213808;28;20031;-73
2022/06/03 09:39:47;;;;;;;2.72;1.10;;;;;;;25.92;52.57;101077.78;5212665;28;20029;-72
2022/06/03 09:42:20;;;;;;;2.70;1.20;;;;;;;26.40;50.84;101074.13;5212006;28;20789;-73
2022/06/03 09:44:52;;;;;;;1.63;1.00;;;;;;;25.48;51.52;101080.94;5213609;28;20028;-73
2022/06/03 09:47:24;;;;;;;1.73;1.02;;;;;;;25.50;50.88;101077.13;5211474;28;20406;-72
2022/06/03 09:49:54;;;;;;;1.55;1.10;;;;;;;26.92;50.03;101070.94;5195335;28;20045;-72
2022/06/03 09:52:27;;;;;;;3.42;1.08;;;;;;;26.94;51.12;101072.47;5210924;28;20107;-73
2022/06/03 09:55:04;;;;;;;2.70;0.90;;;;;;;26.86;51.06;101076.88;5214737;28;20033;-72
2022/06/03 09:57:41;;;;;;;2.35;0.90;;;;;;;27.21;49.01;101074.38;5206999;28;20033;-72
2022/06/03 10:00:21;;;;;;;1.67;0.90;;;;;;;26.27;52.75;101081.63;5200892;28;20052;-72
2022/06/03 10:02:55;;;;;;;2.17;1.27;;;;;;;27.22;48.48;101076.94;5192863;28;20029;-72
2022/06/03 10:05:26;;;;;;;2.10;1.10;;;;;;;26.07;51.67;101069.22;5197159;28;20682;-72
2022/06/03 10:08:01;;;;;;;0.90;0.77;;;;;;;26.90;50.67;101068.41;5192609;28;20045;-72
2022/06/03 10:13:23;;;;;;;2.00;0.90;;;;;;;25.23;52.44;101082.25;5210512;28;20053;-73
2022/06/03 10:16:00;;;;;;;1.85;0.85;;;;;;;25.64;51.89;101065.19;5195540;28;20013;-72
2022/06/03 10:18:44;;;;;;;1.45;1.02;;;;;;;23.14;54.95;101071.59;5209533;28;20571;-72
2022/06/03 10:21:14;;;;;;;2.05;1.20;;;;;;;23.31;54.84;101062.22;5191807;28;20534;-72
2022/06/03 10:24:14;;;;;;;1.70;1.10;;;;;;;24.05;52.92;101056.97;5212106;28;20025;-72
2022/06/03 10:26:52;;;;;;;1.95;1.17;;;;;;;24.18;53.94;101068.34;5197109;28;20121;-71
2022/06/03 10:29:25;;;;;;;1.50;1.00;;;;;;;24.18;54.14;101053.13;5206156;28;20055;-72
2022/06/03 10:32:03;;;;;;;1.65;1.27;;;;;;;24.28;54.21;101050.53;5207350;28;20017;-73
2022/06/03 10:34:40;;;;;;;1.88;1.10;;;;;;;24.50;54.27;101048.59;5206636;28;20037;-71
2022/06/03 10:37:14;;;;;;;3.28;1.10;;;;;;;24.49;54.10;101046.88;5212409;28;20027;-72
2022/06/03 10:39:44;;;;;;;1.38;1.13;;;;;;;24.70;55.48;101042.41;5211079;28;20048;-73
2022/06/03 10:42:18;;;;;;;4.20;1.30;;;;;;;24.24;53.87;101049.09;5211874;28;20025;-72
2022/06/03 10:44:54;;;;;;;1.95;1.10;;;;;;;23.83;55.79;101047.22;5211478;28;20033;-73
2022/06/03 10:47:39;;;;;;;1.58;1.05;;;;;;;23.89;55.91;101045.88;5209932;28;20045;-73
2022/06/03 10:50:26;;;;;;;2.22;1.23;;;;;;;23.93;56.08;101039.28;5207651;28;20025;-72
2022/06/03 11:01:59;;;;;;;2.63;1.05;;;;;;;22.43;57.43;101016.84;5206601;28;20346;-73
2022/06/03 11:04:37;;;;;;;1.77;1.20;;;;;;;23.05;56.42;101018.91;5213549;28;20060;-73
2022/06/03 11:07:32;;;;;;;2.63;1.25;;;;;;;23.21;57.63;101016.75;5206815;28;20027;-72
2022/06/03 11:10:08;;;;;;;1.25;1.00;;;;;;;23.55;58.34;101009.53;5207502;28;20111;-71
2022/06/03 11:12:39;;;;;;;1.63;1.00;;;;;;;23.67;56.04;101009.38;5210367;28;20036;-73
2022/06/03 11:15:31;;;;;;;1.92;1.23;;;;;;;23.04;55.05;101006.56;5212254;28;20633;-72
2022/06/03 11:18:29;;;;;;;3.03;1.30;;;;;;;23.35;55.61;100997.00;5205308;28;20021;-73
2022/06/03 11:21:26;;;;;;;1.60;1.15;;;;;;;23.29;56.86;101003.66;5206248;28;20034;-73
2022/06/03 11:23:57;;;;;;;1.77;1.13;;;;;;;23.30;57.29;101005.34;5212091;28;20029;-73
2022/06/03 11:26:41;;;;;;;3.22;1.20;;;;;;;23.54;55.80;100997.16;5209027;28;20031;-72
2022/06/03 11:29:21;;;;;;;1.70;1.00;;;;;;;23.52;56.19;100989.28;5204253;28;20564;-72
2022/06/03 11:31:54;;;;;;;3.90;1.08;;;;;;;23.04;56.39;100989.72;5206512;28;20036;-73
2022/06/03 11:34:36;;;;;;;1.00;0.90;;;;;;;23.44;57.51;100981.06;5211937;28;20029;-73
2022/06/03 11:37:17;;;;;;;3.17;1.23;;;;;;;23.26;55.58;100977.25;5205988;28;20582;-73
2022/06/03 11:39:58;;;;;;;1.52;0.90;;;;;;;22.86;56.90;100976.03;5211194;28;20025;-73
2022/06/03 11:42:29;;;;;;;1.63;1.10;;;;;;;23.39;56.97;100977.06;5208654;28;20513;-73
2022/06/03 11:45:21;;;;;;;1.90;1.00;;;;;;;23.18;54.73;100963.66;5212628;28;20028;-73
2022/06/03 11:48:01;;;;;;;1.90;0.90;;;;;;;23.07;54.81;100960.13;5210183;28;20362;-73
2022/06/03 11:50:32;;;;;;;2.33;1.15;;;;;;;23.05;57.52;100962.91;5208705;28;20483;-72
2022/06/03 11:53:03;;;;;;;2.58;1.20;;;;;;;22.89;55.57;100959.81;5194837;28;20071;-72
2022/06/03 11:55:36;;;;;;;1.77;1.02;;;;;;;23.47;59.42;100966.59;5210643;28;20049;-74
2022/06/03 11:58:19;;;;;;;0.90;0.85;;;;;;;23.58;57.76;100956.75;5193947;28;20116;-71
2022/06/03 12:01:02;;;;;;;0.95;0.82;;;;;;;23.51;53.91;100944.88;5186700;28;20033;-73
2022/06/03 12:03:45;;;;;;;4.47;1.13;;;;;;;23.15;56.39;100939.91;5210087;28;20037;-73
2022/06/03 12:06:23;;;;;;;1.40;1.00;;;;;;;23.17;55.83;100940.63;5209920;28;20048;-75
2022/06/03 12:08:53;;;;;;;1.27;0.95;;;;;;;23.30;54.16;100932.47;5213111;28;20396;-73
2022/06/03 12:15:17;;;;;;;2.35;0.95;;;;;;;23.25;56.90;100930.19;5210805;28;20303;-73
2022/06/03 12:17:48;;;;;;;2.35;0.85;;;;;;;23.36;57.92;100929.31;5210326;28;20724;-73
2022/06/03 12:20:30;;;;;;;1.88;1.13;;;;;;;23.08;55.87;100927.16;5215840;28;20040;-74
2022/06/03 12:23:13;;;;;;;1.13;0.77;;;;;;;23.23;56.04;100923.28;5210403;28;20035;-74
2022/06/03 12:25:51;;;;;;;1.40;0.90;;;;;;;23.50;56.64;100921.00;5195605;28;20030;-73
2022/06/03 12:28:27;;;;;;;1.63;1.10;;;;;;;23.11;56.61;100906.47;5207275;28;20569;-72
2022/06/03 12:30:59;;;;;;;0.82;0.73;;;;;;;23.26;56.05;100923.88;5205655;28;20478;-74
2022/06/03 12:33:43;;;;;;;1.95;1.00;;;;;;;23.54;57.65;100912.59;5213687;28;20028;-73
2022/06/03 12:36:50;;;;;;;1.80;0.90;;;;;;;23.30;57.65;100909.31;5208830;28;20466;-72
2022/06/03 12:39:31;;;;;;;1.10;0.80;;;;;;;22.68;56.90;100905.53;5193343;28;20029;-75
2022/06/03 12:42:04;;;;;;;1.65;0.90;;;;;;;22.84;57.90;100898.00;5203169;28;20025;-73
2022/06/03 12:44:41;;;;;;;1.23;0.80;;;;;;;22.63;57.31;100890.88;5205722;28;20076;-72
2022/06/03 12:47:43;;;;;;;2.25;1.23;;;;;;;23.11;57.15;100893.13;5194609;28;20412;-73
2022/06/03 12:50:29;;;;;;;1.63;0.90;;;;;;;23.36;57.67;100876.78;5207002;28;20406;-73
2022/06/03 12:53:20;;;;;;;1.17;0.80;;;;;;;23.85;56.84;100884.22;5209480;28;20029;-73
2022/06/03 12:55:58;;;;;;;2.90;1.08;;;;;;;23.69;55.89;100884.63;5212380;28;21366;-72
2022/06/03 12:58:42;;;;;;;1.38;0.80;;;;;;;23.88;54.86;100878.59;5210463;28;20040;-73
2022/06/03 13:01:29;;;;;;;1.08;0.70;;;;;;;23.83;53.61;100876.31;5205504;28;20025;-73
2022/06/03 13:04:25;;;;;;;0.75;0.70;;;;;;;24.14;55.34;100869.16;5199727;28;20262;-74
2022/06/03 13:07:23;;;;;;;1.35;0.88;;;;;;;23.95;54.42;100864.59;5192584;28;20100;-74
2022/06/03 13:10:07;;;;;;;2.45;0.90;;;;;;;23.61;55.22;100868.41;5211573;28;20072;-73
2022/06/03 13:12:38;;;;;;;3.05;0.95;;;;;;;23.41;54.51;100858.56;5203766;28;20029;-75
2022/06/03 13:15:20;;;;;;;1.03;0.90;;;;;;;23.24;56.40;100867.16;5213051;28;20029;-73
2022/06/03 13:18:18;;;;;;;1.27;0.80;;;;;;;23.30;56.74;100866.63;5194297;28;20280;-74
2022/06/03 13:21:08;;;;;;;2.45;0.70;;;;;;;23.72;57.24;100857.66;5198250;28;20036;-74
2022/06/03 13:23:41;;;;;;;2.15;0.95;;;;;;;23.47;56.69;100860.72;5184450;28;20517;-73